Time;durP1;ratioP1;P1;durP2;ratioP2;P2;SDS_P1;SDS_P2;PMS_P1;PMS_P2;Temp;Humidity;BMP_temperature;BMP_pressure;BME280_temperature;BME280_humidity;BME280_pressure;Samples;Min_cycle;Max_cycle;Signal;HPM_P1;HPM_P2
2021/12/03 00:02:06;;;;;;;3.05;1.00;;;;;;;17.66;43.63;101047.00;5035332;28;20074;-63
2021/12/03 00:04:31;;;;;;;2.97;1.00;;;;;;;17.69;43.61;101044.06;5068600;28;20378;-63
2021/12/03 00:06:57;;;;;;;3.90;1.40;;;;;;;17.68;43.60;101055.66;5054372;28;20045;-63
2021/12/03 00:09:22;;;;;;;3.20;1.00;;;;;;;17.64;43.41;101055.06;5049773;28;20119;-63
2021/12/03 00:11:48;;;;;;;3.15;1.17;;;;;;;17.63;43.59;101052.53;5032683;28;20068;-63
2021/12/03 00:14:13;;;;;;;2.53;1.00;;;;;;;17.61;43.53;101050.00;5049927;28;20055;-63
2021/12/03 00:16:39;;;;;;;1.67;0.90;;;;;;;17.57;43.17;101054.72;5049711;28;20053;-63
2021/12/03 00:19:04;;;;;;;1.70;0.80;;;;;;;17.54;43.46;101054.97;5013739;28;20045;-63
2021/12/03 00:21:29;;;;;;;2.28;0.80;;;;;;;17.56;43.34;101057.53;5052076;28;20040;-63
2021/12/03 00:23:55;;;;;;;3.80;0.80;;;;;;;17.53;43.76;101055.97;5067036;28;20044;-62
2021/12/03 00:26:20;;;;;;;1.92;0.93;;;;;;;17.49;43.26;101057.19;5064934;28;20048;-63
2021/12/03 00:28:46;;;;;;;1.88;0.80;;;;;;;17.49;43.25;101051.06;5069663;28;20036;-63
2021/12/03 00:31:11;;;;;;;2.47;0.90;;;;;;;17.48;43.30;101052.00;5069580;28;20488;-63
2021/12/03 00:33:37;;;;;;;2.05;0.90;;;;;;;17.47;43.25;101055.63;5070057;28;20044;-63
2021/12/03 00:36:05;;;;;;;2.78;0.90;;;;;;;17.46;43.54;101056.63;5068590;28;20086;-63
2021/12/03 00:38:40;;;;;;;2.25;0.85;;;;;;;17.47;43.68;101059.13;5051906;28;20036;-63
2021/12/03 00:41:06;;;;;;;2.13;0.80;;;;;;;17.48;43.51;101057.31;5069037;28;20114;-63
2021/12/03 00:43:32;;;;;;;2.47;1.00;;;;;;;17.47;43.55;101060.94;5069298;28;20033;-63
2021/12/03 00:46:04;;;;;;;2.15;0.80;;;;;;;17.47;43.82;101058.28;5069152;28;20102;-63
2021/12/03 00:48:30;;;;;;;2.53;0.68;;;;;;;17.44;43.65;101050.59;5052416;28;20040;-63
2021/12/03 00:50:55;;;;;;;3.10;0.90;;;;;;;17.41;43.59;101053.47;5069430;28;20400;-63
2021/12/03 00:53:21;;;;;;;2.00;0.90;;;;;;;17.41;44.25;101050.84;5069142;28;20074;-63
2021/12/03 00:55:46;;;;;;;1.70;0.77;;;;;;;17.40;43.37;101049.16;5068770;28;20029;-63
2021/12/03 00:58:11;;;;;;;2.58;1.05;;;;;;;17.40;43.67;101047.34;5068509;28;20052;-63
2021/12/03 01:00:37;;;;;;;2.47;0.80;;;;;;;17.34;43.11;101048.69;5068263;28;20503;-63
2021/12/03 01:03:02;;;;;;;2.17;0.93;;;;;;;17.32;43.67;101042.66;5051141;28;20052;-63
2021/12/03 01:05:28;;;;;;;2.60;0.70;;;;;;;17.29;43.47;101028.81;5068977;28;20044;-63
2021/12/03 01:07:53;;;;;;;1.75;0.80;;;;;;;17.33;43.26;101031.09;5068876;28;20135;-63
2021/12/03 01:10:19;;;;;;;1.92;0.73;;;;;;;17.32;43.61;101028.56;5068511;28;20040;-63
2021/12/03 01:12:44;;;;;;;2.72;0.80;;;;;;;17.32;43.33;101017.94;5051020;28;20037;-63
2021/12/03 01:15:13;;;;;;;2.28;0.80;;;;;;;17.28;43.30;101020.03;5068173;28;20045;-63
2021/12/03 01:17:38;;;;;;;3.13;0.85;;;;;;;17.29;44.06;101020.84;5064833;28;20037;-63
2021/12/03 01:20:06;;;;;;;2.03;0.80;;;;;;;17.23;43.55;101018.72;5030807;28;20118;-63
2021/12/03 01:22:31;;;;;;;1.90;0.73;;;;;;;17.22;43.66;101023.16;5049018;28;20367;-63
2021/12/03 01:24:57;;;;;;;1.55;0.75;;;;;;;17.26;43.76;101029.06;5048927;28;20041;-62
2021/12/03 01:27:22;;;;;;;2.38;0.90;;;;;;;17.27;43.49;101036.06;5048091;28;20057;-63
2021/12/03 01:29:48;;;;;;;1.88;0.77;;;;;;;17.23;43.59;101035.44;5068532;28;20420;-63
2021/12/03 01:32:13;;;;;;;1.45;0.60;;;;;;;17.27;43.78;101039.56;5068178;28;20040;-62
2021/12/03 01:34:39;;;;;;;2.25;0.80;;;;;;;17.22;43.49;101039.06;5068517;28;20120;-62
2021/12/03 01:37:04;;;;;;;2.65;0.90;;;;;;;17.18;43.12;101037.66;5050059;28;20075;-63
2021/12/03 01:39:30;;;;;;;2.15;0.90;;;;;;;17.21;43.57;101032.09;5068761;28;20041;-63
2021/12/03 01:41:55;;;;;;;2.83;0.90;;;;;;;17.19;43.22;101038.50;5068552;28;20501;-63
2021/12/03 01:44:21;;;;;;;3.28;0.70;;;;;;;17.16;43.76;101028.97;5068527;28;20055;-63
2021/12/03 01:46:46;;;;;;;2.15;0.85;;;;;;;17.18;43.73;101029.69;5068296;28;20476;-64
2021/12/03 01:49:14;;;;;;;2.58;1.00;;;;;;;17.17;43.57;101028.00;5050126;28;20067;-63
2021/12/03 01:51:40;;;;;;;2.88;0.90;;;;;;;17.17;43.78;101025.34;5051175;28;20181;-63
2021/12/03 01:54:06;;;;;;;2.25;0.75;;;;;;;17.10;42.96;101024.16;5067669;28;20044;-64
2021/12/03 01:56:31;;;;;;;2.53;0.80;;;;;;;17.10;43.25;101017.06;5065895;28;20029;-63
2021/12/03 01:58:57;;;;;;;3.42;0.80;;;;;;;17.10;43.97;101014.41;5032051;28;20041;-62
2021/12/03 02:01:27;;;;;;;3.40;0.90;;;;;;;17.08;44.04;101016.38;5027847;28;20079;-63
2021/12/03 02:03:53;;;;;;;;;;;;;;;17.06;43.85;101022.75;5003662;28;20532;-63
2021/12/03 02:06:19;;;;;;;3.08;0.90;;;;;;;17.08;43.65;101024.31;5029747;28;19917;-63
2021/12/03 02:08:44;;;;;;;3.03;0.80;;;;;;;17.07;43.19;101025.25;5049098;28;20559;-63
2021/12/03 02:11:10;;;;;;;1.98;0.90;;;;;;;17.08;43.87;101026.13;5067481;28;20044;-63
2021/12/03 02:13:36;;;;;;;2.65;0.90;;;;;;;17.05;43.47;101032.50;5068195;28;20041;-63
2021/12/03 02:16:04;;;;;;;2.47;0.70;;;;;;;17.02;43.52;101037.22;5049125;28;20040;-63
2021/12/03 02:18:29;;;;;;;1.80;0.80;;;;;;;16.99;43.49;101022.41;5067067;28;20039;-63
2021/12/03 02:20:56;;;;;;;2.00;0.90;;;;;;;16.97;43.61;101018.19;5050222;28;20037;-63
2021/12/03 02:23:22;;;;;;;1.95;0.75;;;;;;;17.00;43.13;101010.00;5049978;28;20032;-63
2021/12/03 02:25:56;;;;;;;2.88;0.80;;;;;;;16.98;43.78;101003.97;5050213;28;20055;-63
2021/12/03 02:28:25;;;;;;;1.77;0.70;;;;;;;17.00;43.20;101002.03;5066939;28;20063;-63
2021/12/03 02:30:51;;;;;;;2.70;0.95;;;;;;;16.96;43.22;100997.97;5067694;28;20052;-62
2021/12/03 02:33:16;;;;;;;2.58;0.93;;;;;;;16.97;43.66;100997.81;5067318;28;20079;-63
2021/12/03 02:35:43;;;;;;;2.63;0.80;;;;;;;16.98;43.29;100998.66;5067940;28;20050;-63
2021/12/03 02:38:09;;;;;;;1.90;0.80;;;;;;;16.94;43.86;100997.25;5065281;28;20040;-63
2021/12/03 02:40:35;;;;;;;3.42;0.90;;;;;;;16.94;43.61;100998.06;5065845;28;20373;-63
2021/12/03 02:43:00;;;;;;;4.25;0.90;;;;;;;16.96;43.27;100996.16;5067280;28;20495;-62
2021/12/03 02:45:25;;;;;;;3.03;0.90;;;;;;;16.98;44.08;100998.66;5049307;28;20318;-63
2021/12/03 02:47:51;;;;;;;2.20;0.70;;;;;;;16.92;43.22;101002.66;5067216;28;20044;-63
2021/12/03 02:50:17;;;;;;;2.70;1.00;;;;;;;16.94;43.64;100999.88;5049566;28;20412;-63
2021/12/03 02:52:42;;;;;;;2.17;0.90;;;;;;;16.88;43.74;100999.41;5068026;28;20111;-63
2021/12/03 02:55:08;;;;;;;2.05;0.85;;;;;;;16.90;43.08;101001.94;5049256;28;20457;-63
2021/12/03 02:57:33;;;;;;;2.55;0.82;;;;;;;16.88;43.89;101004.72;5066501;28;20041;-63
2021/12/03 02:59:59;;;;;;;3.38;1.00;;;;;;;16.82;43.63;100994.59;5066425;28;20047;-62
2021/12/03 03:02:24;;;;;;;3.30;0.70;;;;;;;16.82;44.12;100991.13;5067105;28;20072;-63
2021/12/03 03:04:51;;;;;;;2.42;0.85;;;;;;;16.82;44.21;100991.94;5068004;28;20060;-63
2021/12/03 03:07:17;;;;;;;2.88;0.90;;;;;;;16.85;43.55;100994.34;5052573;28;20033;-63
2021/12/03 03:09:44;;;;;;;2.03;0.70;;;;;;;16.85;43.52;100988.22;5071592;28;20041;-63
2021/12/03 03:12:13;;;;;;;2.53;0.70;;;;;;;16.83;43.08;100985.72;5036271;28;20068;-63
2021/12/03 03:14:46;;;;;;;2.10;0.88;;;;;;;16.79;43.33;100980.75;5053873;28;20047;-63
2021/12/03 03:17:12;;;;;;;2.97;0.80;;;;;;;16.83;44.31;100980.41;5070355;28;20127;-63
2021/12/03 03:19:37;;;;;;;1.98;0.70;;;;;;;16.83;43.04;100969.81;5033764;28;20040;-63
2021/12/03 03:22:03;;;;;;;2.08;0.80;;;;;;;16.79;44.14;100963.06;5050864;28;20063;-63
2021/12/03 03:24:28;;;;;;;2.55;0.70;;;;;;;16.80;43.77;100964.75;5051739;28;20127;-63
2021/12/03 03:26:53;;;;;;;2.63;0.90;;;;;;;16.78;43.96;100961.38;5017001;28;20048;-63
2021/12/03 03:29:19;;;;;;;2.28;0.90;;;;;;;16.82;44.00;100952.22;5032445;28;20405;-63
2021/12/03 03:31:45;;;;;;;2.15;0.70;;;;;;;16.81;43.20;100950.53;5050837;28;20532;-63
2021/12/03 03:34:11;;;;;;;2.20;0.70;;;;;;;16.81;43.58;100945.22;5050432;28;20064;-63
2021/12/03 03:36:38;;;;;;;3.08;0.93;;;;;;;16.81;43.51;100944.41;5050965;28;20037;-63
2021/12/03 03:39:05;;;;;;;2.92;0.75;;;;;;;16.79;44.25;100946.31;5050427;28;20057;-63
2021/12/03 03:41:30;;;;;;;2.00;0.70;;;;;;;16.73;43.53;100929.06;5050829;28;20051;-63
2021/12/03 03:43:56;;;;;;;1.40;0.68;;;;;;;16.74;43.75;100928.13;5050893;28;20041;-63
2021/12/03 03:46:21;;;;;;;3.78;0.60;;;;;;;16.74;43.72;100928.13;5048731;28;20044;-63
2021/12/03 03:48:47;;;;;;;2.65;0.70;;;;;;;16.74;44.10;100922.84;5070564;28;20082;-62
2021/12/03 03:51:12;;;;;;;2.55;0.90;;;;;;;16.73;43.39;100920.28;5070264;28;20127;-63
2021/12/03 03:53:39;;;;;;;2.72;0.80;;;;;;;16.74;44.11;100916.69;5036141;28;20063;-63
2021/12/03 03:56:05;;;;;;;2.30;0.93;;;;;;;16.76;44.19;100915.63;5070162;28;20043;-63
2021/12/03 03:58:31;;;;;;;5.25;1.00;;;;;;;16.75;43.85;100916.59;5070341;28;20041;-62
2021/12/03 04:00:56;;;;;;;2.03;0.60;;;;;;;16.71;44.33;100920.44;5052569;28;20052;-62
2021/12/03 04:03:21;;;;;;;3.83;0.98;;;;;;;16.74;43.76;100924.66;5052313;28;20036;-62
2021/12/03 04:05:47;;;;;;;2.55;0.77;;;;;;;16.70;43.95;100937.28;5070580;28;20037;-62
2021/12/03 04:08:12;;;;;;;2.55;0.70;;;;;;;16.65;43.73;100934.19;5069020;28;20515;-63
2021/12/03 04:10:38;;;;;;;2.47;0.55;;;;;;;16.65;43.85;100935.00;5052171;28;20670;-63
2021/12/03 04:13:03;;;;;;;3.10;0.90;;;;;;;16.66;44.25;100935.84;5069846;28;20044;-63
2021/12/03 04:15:29;;;;;;;5.15;0.80;;;;;;;16.67;43.79;100934.88;5070279;28;20048;-63
2021/12/03 04:17:54;;;;;;;1.70;0.63;;;;;;;16.67;44.16;100937.53;5046675;28;20647;-63
2021/12/03 04:20:20;;;;;;;2.20;0.70;;;;;;;16.68;44.63;100933.94;5049591;28;20539;-63
2021/12/03 04:22:46;;;;;;;2.83;0.80;;;;;;;16.63;43.87;100925.50;5050163;28;20033;-63
2021/12/03 04:25:13;;;;;;;4.75;0.73;;;;;;;16.68;44.64;100925.97;5031974;28;20603;-63
2021/12/03 04:27:39;;;;;;;2.92;0.60;;;;;;;16.65;44.62;100920.94;5057206;28;20097;-63
2021/12/03 04:30:06;;;;;;;1.95;0.50;;;;;;;16.65;44.57;100918.28;5052052;28;20447;-63
2021/12/03 04:32:31;;;;;;;1.90;0.68;;;;;;;16.65;43.98;100913.00;5070277;28;20492;-63
2021/12/03 04:34:57;;;;;;;2.25;0.60;;;;;;;16.65;43.66;100905.88;5035568;28;20074;-63
2021/12/03 04:37:22;;;;;;;2.05;0.65;;;;;;;16.63;44.09;100909.59;5069170;28;20558;-63
2021/12/03 04:39:48;;;;;;;3.35;0.70;;;;;;;16.62;43.99;100907.94;5035320;28;20063;-63
2021/12/03 04:42:13;;;;;;;2.75;0.55;;;;;;;16.64;43.68;100911.31;5051402;28;20435;-63
2021/12/03 04:44:39;;;;;;;2.45;0.50;;;;;;;16.61;44.78;100900.97;5069884;28;20033;-63
2021/12/03 04:47:04;;;;;;;3.28;0.68;;;;;;;16.64;44.38;100896.25;5069086;28;20040;-63
2021/12/03 04:49:30;;;;;;;2.63;0.70;;;;;;;16.66;44.03;100893.47;5051216;28;20049;-63
2021/12/03 04:51:56;;;;;;;2.88;0.60;;;;;;;16.62;44.05;100892.03;5069644;28;20056;-62
2021/12/03 04:54:21;;;;;;;2.97;0.57;;;;;;;16.59;44.28;100897.59;5068894;28;20206;-63
2021/12/03 04:56:47;;;;;;;2.92;0.57;;;;;;;16.59;44.47;100892.28;5069313;28;20075;-63
2021/12/03 04:59:12;;;;;;;2.40;0.55;;;;;;;16.58;44.47;100890.63;5050449;28;20041;-63
2021/12/03 05:01:39;;;;;;;2.30;0.70;;;;;;;16.58;44.79;100887.97;5069066;28;20036;-63
2021/12/03 05:04:04;;;;;;;2.72;0.52;;;;;;;16.56;43.99;100884.59;5068817;28;20093;-63
2021/12/03 05:06:41;;;;;;;2.92;0.70;;;;;;;16.58;43.98;100885.31;5069311;28;20045;-63
2021/12/03 05:09:07;;;;;;;4.78;0.70;;;;;;;16.59;44.69;100879.88;5052052;28;20048;-63
2021/12/03 05:11:32;;;;;;;2.50;0.55;;;;;;;16.57;44.03;100879.16;5051392;28;20044;-63
2021/12/03 05:13:58;;;;;;;2.95;0.60;;;;;;;16.64;43.99;100876.88;5069130;28;20045;-62
2021/12/03 05:16:23;;;;;;;2.83;0.60;;;;;;;16.73;44.42;100872.59;5050849;28;20028;-62
2021/12/03 05:18:49;;;;;;;2.60;0.68;;;;;;;16.81;43.79;100872.88;5068477;28;20400;-63
2021/12/03 05:21:14;;;;;;;4.18;0.55;;;;;;;16.90;43.79;100865.97;5050660;28;20047;-63
2021/12/03 05:23:39;;;;;;;2.65;0.77;;;;;;;16.97;43.93;100865.31;5034407;28;20041;-63
2021/12/03 05:26:05;;;;;;;2.33;0.50;;;;;;;17.02;43.49;100863.13;5068325;28;20040;-63
2021/12/03 05:28:30;;;;;;;2.42;0.50;;;;;;;17.09;43.62;100864.28;5033725;28;20040;-63
2021/12/03 05:30:56;;;;;;;4.25;0.70;;;;;;;17.18;44.40;100856.56;5067563;28;20049;-63
2021/12/03 05:33:22;;;;;;;2.33;0.50;;;;;;;17.23;43.84;100856.97;5068167;28;20041;-63
2021/12/03 05:35:47;;;;;;;1.73;0.43;;;;;;;17.35;43.73;100864.72;5068783;28;20043;-63
2021/12/03 05:38:13;;;;;;;2.80;0.50;;;;;;;17.45;43.58;100863.94;5067550;28;20052;-63
2021/12/03 05:40:38;;;;;;;1.15;0.30;;;;;;;17.57;43.68;100853.13;5034144;28;20738;-63
2021/12/03 05:43:04;;;;;;;3.67;0.60;;;;;;;17.69;44.02;100853.03;5068077;28;20044;-63
2021/12/03 05:45:30;;;;;;;2.58;0.50;;;;;;;17.77;43.92;100856.75;5068691;28;20047;-63
2021/12/03 05:47:56;;;;;;;2.08;0.50;;;;;;;17.86;43.75;100856.91;5068186;28;20071;-63
2021/12/03 05:50:21;;;;;;;2.33;0.50;;;;;;;17.92;43.67;100848.41;5068472;28;20036;-63
2021/12/03 05:52:47;;;;;;;2.17;0.47;;;;;;;17.98;43.72;100863.78;5068846;28;20183;-63
2021/12/03 05:55:13;;;;;;;1.15;0.40;;;;;;;18.00;43.78;100854.72;5050253;28;20036;-63
2021/12/03 05:57:39;;;;;;;2.92;0.57;;;;;;;18.07;43.67;100860.34;5067673;28;20028;-63
2021/12/03 06:00:06;;;;;;;2.38;0.50;;;;;;;18.08;43.93;100846.06;5067034;28;20091;-63
2021/12/03 06:02:31;;;;;;;2.55;0.75;;;;;;;18.08;44.13;100847.91;5048398;28;20113;-63
2021/12/03 06:04:57;;;;;;;2.55;0.60;;;;;;;18.11;43.82;100853.75;5048402;28;20556;-63
2021/12/03 06:07:22;;;;;;;2.88;0.43;;;;;;;18.15;44.05;100851.72;5049225;28;20110;-63
2021/12/03 06:09:48;;;;;;;1.40;0.40;;;;;;;18.16;44.21;100848.91;5068104;28;20488;-63
2021/12/03 06:12:13;;;;;;;1.50;0.40;;;;;;;18.21;44.43;100856.47;5032913;28;20054;-63
2021/12/03 06:14:38;;;;;;;2.63;0.60;;;;;;;18.22;43.88;100852.84;5068165;28;20048;-63
2021/12/03 06:17:04;;;;;;;2.28;0.60;;;;;;;18.22;44.00;100848.34;5067537;28;20500;-63
2021/12/03 06:19:29;;;;;;;3.70;0.50;;;;;;;18.23;44.29;100838.56;5049183;28;20078;-63
2021/12/03 06:21:55;;;;;;;3.30;0.70;;;;;;;18.26;44.17;100836.47;5067986;28;20031;-63
2021/12/03 06:24:20;;;;;;;2.45;0.43;;;;;;;18.29;44.05;100832.72;5067509;28;20048;-63
2021/12/03 06:27:16;;;;;;;1.92;0.43;;;;;;;18.34;44.19;100845.59;5068080;28;20041;-63
2021/12/03 06:29:42;;;;;;;1.83;0.52;;;;;;;18.38;44.08;100833.72;5067501;28;20481;-63
2021/12/03 06:32:09;;;;;;;2.22;0.50;;;;;;;18.40;43.94;100829.94;5016142;28;20031;-63
2021/12/03 06:34:36;;;;;;;1.60;0.40;;;;;;;18.45;44.21;100837.47;5050335;28;20044;-63
2021/12/03 06:37:01;;;;;;;2.55;0.60;;;;;;;18.48;44.35;100842.53;5067411;28;20048;-64
2021/12/03 06:39:27;;;;;;;2.17;0.55;;;;;;;18.49;44.60;100830.94;5067775;28;20036;-63
2021/12/03 06:41:52;;;;;;;2.03;0.55;;;;;;;18.52;44.36;100843.94;5070507;28;20056;-61
2021/12/03 06:44:18;;;;;;;3.58;0.63;;;;;;;18.54;44.21;100841.13;5071431;28;20068;-63
2021/12/03 06:46:43;;;;;;;2.40;0.50;;;;;;;18.56;44.28;100825.91;5054327;28;20071;-62
2021/12/03 06:49:09;;;;;;;2.85;0.60;;;;;;;18.57;44.40;100819.59;5071008;28;20479;-63
2021/12/03 06:51:40;;;;;;;3.65;0.50;;;;;;;18.58;44.42;100819.44;5069936;28;20119;-63
2021/12/03 06:54:06;;;;;;;4.00;0.60;;;;;;;18.59;44.29;100822.97;5071102;28;20045;-63
2021/12/03 06:56:33;;;;;;;3.88;0.60;;;;;;;18.62;44.40;100820.03;5067523;28;20188;-64
2021/12/03 06:58:59;;;;;;;2.50;0.52;;;;;;;18.62;44.80;100823.53;5066020;28;20140;-63
2021/12/03 07:01:24;;;;;;;2.92;0.50;;;;;;;18.66;44.33;100822.25;5058621;28;20033;-63
2021/12/03 07:03:50;;;;;;;3.22;0.52;;;;;;;18.67;44.34;100826.56;5060507;28;20044;-63
2021/12/03 07:06:15;;;;;;;3.47;0.70;;;;;;;18.70;44.75;100831.63;5050757;28;20528;-62
2021/12/03 07:08:41;;;;;;;6.72;0.90;;;;;;;18.71;44.65;100829.81;5056184;28;20037;-63
2021/12/03 07:11:06;;;;;;;9.20;0.77;;;;;;;18.72;44.46;100829.69;5059774;28;20047;-64
2021/12/03 07:13:32;;;;;;;3.35;0.55;;;;;;;18.74;44.52;100829.56;5059203;28;20481;-63
2021/12/03 07:15:58;;;;;;;3.05;0.60;;;;;;;18.75;44.73;100817.97;5038610;28;20048;-63
2021/12/03 07:18:24;;;;;;;2.50;0.50;;;;;;;18.77;44.57;100817.81;5062843;28;20127;-63
2021/12/03 07:20:49;;;;;;;3.17;0.60;;;;;;;18.77;44.42;100807.16;5050488;28;20168;-63
2021/12/03 07:23:15;;;;;;;3.35;0.70;;;;;;;18.80;45.04;100813.03;5049800;28;20064;-63
2021/12/03 07:25:40;;;;;;;6.82;0.80;;;;;;;18.78;45.10;100799.06;5057192;28;20063;-63
2021/12/03 07:28:07;;;;;;;2.83;0.60;;;;;;;18.78;44.94;100801.72;5050751;28;20060;-64
2021/12/03 07:30:32;;;;;;;4.30;0.60;;;;;;;18.78;44.54;100806.22;5070523;28;20135;-63
2021/12/03 07:32:58;;;;;;;3.90;0.60;;;;;;;18.76;44.81;100801.03;5067930;28;20118;-63
2021/12/03 07:35:24;;;;;;;5.82;0.75;;;;;;;18.78;44.72;100800.91;5038274;28;20127;-63
2021/12/03 07:37:49;;;;;;;4.03;0.60;;;;;;;18.80;44.95;100790.94;5056336;28;20128;-63
2021/12/03 07:40:14;;;;;;;4.50;0.80;;;;;;;18.81;44.50;100795.28;5049622;28;20033;-63
2021/12/03 07:42:40;;;;;;;3.28;0.55;;;;;;;18.83;44.91;100790.66;5068628;28;20033;-63
2021/12/03 07:45:08;;;;;;;2.92;0.63;;;;;;;18.83;44.88;100788.84;5051830;28;20036;-63
2021/12/03 07:47:34;;;;;;;2.50;0.50;;;;;;;18.85;45.01;100784.22;5019502;28;20124;-63
2021/12/03 07:49:59;;;;;;;3.85;0.60;;;;;;;18.85;44.48;100784.22;5051261;28;20823;-63
2021/12/03 07:52:25;;;;;;;3.47;0.55;;;;;;;18.86;44.87;100782.41;5057533;28;20094;-63
2021/12/03 07:54:50;;;;;;;3.28;0.50;;;;;;;18.87;45.18;100776.13;5050183;28;20037;-63
2021/12/03 07:57:16;;;;;;;3.58;0.70;;;;;;;18.89;44.87;100774.13;5065942;28;20048;-63
2021/12/03 07:59:41;;;;;;;5.50;0.88;;;;;;;18.88;45.24;100775.97;5051736;28;20073;-63
2021/12/03 08:02:07;;;;;;;5.93;0.75;;;;;;;18.86;45.09;100754.00;5047640;28;20064;-63
2021/12/03 08:04:32;;;;;;;4.20;0.88;;;;;;;18.84;44.17;100757.81;5069956;28;20051;-63
2021/12/03 08:07:00;;;;;;;4.30;0.60;;;;;;;18.87;44.80;100755.69;5049900;28;20413;-63
2021/12/03 08:09:25;;;;;;;4.38;0.70;;;;;;;18.88;44.96;100754.69;5059626;28;20072;-63
2021/12/03 08:11:51;;;;;;;3.83;0.63;;;;;;;18.86;44.44;100761.13;5069644;28;20036;-63
2021/12/03 08:14:17;;;;;;;6.35;0.90;;;;;;;18.81;44.83;100750.13;5069311;28;20043;-63
2021/12/03 08:16:43;;;;;;;5.43;0.70;;;;;;;18.83;44.65;100764.06;5069918;28;20051;-63
2021/12/03 08:19:08;;;;;;;3.05;0.60;;;;;;;18.78;45.02;100745.09;5064132;28;20041;-63
2021/12/03 08:21:34;;;;;;;4.88;0.80;;;;;;;18.81;44.81;100742.97;5050657;28;20439;-63
2021/12/03 08:24:00;;;;;;;3.90;0.60;;;;;;;18.82;44.47;100743.81;5060026;28;20033;-63
2021/12/03 08:26:26;;;;;;;2.67;0.50;;;;;;;18.83;45.13;100740.16;5054027;28;20564;-63
2021/12/03 08:28:52;;;;;;;5.53;0.85;;;;;;;18.79;44.35;100746.75;5058158;28;20058;-61
2021/12/03 08:31:18;;;;;;;4.25;0.70;;;;;;;18.83;44.42;100741.00;5057761;28;20036;-63
2021/12/03 08:33:44;;;;;;;6.97;0.95;;;;;;;18.76;43.65;100744.38;5041464;28;20063;-62
2021/12/03 08:36:09;;;;;;;2.83;0.52;;;;;;;18.78;44.26;100753.06;5061251;28;20552;-63
2021/12/03 08:38:34;;;;;;;3.40;0.70;;;;;;;18.81;44.87;100745.63;5048507;28;20045;-63
2021/12/03 08:41:00;;;;;;;3.05;0.57;;;;;;;18.85;44.84;100746.19;5051922;28;20048;-63
2021/12/03 08:43:26;;;;;;;5.05;0.85;;;;;;;18.88;44.62;100748.56;5002551;28;20155;-63
2021/12/03 08:45:55;;;;;;;4.55;0.63;;;;;;;18.90;45.15;100735.97;5043223;28;20041;-63
2021/12/03 08:48:22;;;;;;;4.13;0.63;;;;;;;18.92;44.70;100733.97;5016652;28;20090;-63
2021/12/03 08:50:52;;;;;;;4.95;0.55;;;;;;;18.91;44.74;100741.13;5036749;28;20053;-63
2021/12/03 08:55:58;;;;;;;;;;;;;;;18.86;45.13;100723.91;5016834;28;20046;-63
2021/12/03 08:58:24;;;;;;;5.18;0.65;;;;;;;18.88;45.03;100738.75;5044692;28;19955;-62
2021/12/03 09:00:49;;;;;;;3.55;0.90;;;;;;;18.94;45.49;100734.69;5049061;28;20076;-62
2021/12/03 09:03:15;;;;;;;2.25;0.65;;;;;;;18.93;45.22;100719.72;5055770;28;20033;-63
2021/12/03 09:05:42;;;;;;;6.07;1.05;;;;;;;18.91;45.12;100721.69;5067553;28;20032;-62
2021/12/03 09:08:07;;;;;;;3.63;0.80;;;;;;;18.92;44.84;100718.88;5048442;28;20033;-63
2021/12/03 09:10:33;;;;;;;4.78;0.70;;;;;;;18.91;44.98;100722.50;5049518;28;20529;-63
2021/12/03 09:12:58;;;;;;;3.80;0.70;;;;;;;18.85;44.65;100711.63;5068440;28;20097;-63
2021/12/03 09:15:38;;;;;;;3.85;0.63;;;;;;;18.86;45.10;100715.94;5067914;28;20033;-63
2021/12/03 09:18:21;;;;;;;4.13;0.85;;;;;;;18.84;45.15;100702.81;5066282;28;20056;-63
2021/12/03 09:21:12;;;;;;;3.83;0.80;;;;;;;18.86;44.93;100707.97;5068545;28;20036;-63
2021/12/03 09:26:17;;;;;;;3.80;0.70;;;;;;;18.89;45.20;100707.69;5068053;28;20140;-63
2021/12/03 09:28:50;;;;;;;2.75;0.60;;;;;;;18.88;44.92;100695.38;5065496;28;20430;-63
2021/12/03 09:31:17;;;;;;;3.50;0.70;;;;;;;18.87;45.19;100688.41;5062766;28;20048;-62
2021/12/03 09:33:45;;;;;;;3.88;1.02;;;;;;;18.84;44.62;100694.84;5068682;28;20056;-63
2021/12/03 09:36:11;;;;;;;4.03;0.75;;;;;;;18.84;44.78;100688.69;5050785;28;20040;-63
2021/12/03 09:38:36;;;;;;;3.90;0.80;;;;;;;18.84;45.32;100684.22;5050484;28;20120;-63
2021/12/03 09:41:15;;;;;;;2.72;0.65;;;;;;;18.84;44.83;100683.38;5050459;28;20515;-64
2021/12/03 09:43:45;;;;;;;5.45;0.88;;;;;;;18.83;44.99;100679.84;5068586;28;20070;-63
2021/12/03 09:51:24;;;;;;;2.50;0.60;;;;;;;18.84;44.99;100662.94;5068078;28;20070;-63
2021/12/03 09:54:20;;;;;;;3.42;0.88;;;;;;;18.81;44.49;100655.28;5068278;28;20072;-63
2021/12/03 09:56:46;;;;;;;3.60;0.70;;;;;;;18.81;45.07;100651.78;5054693;28;20079;-63
2021/12/03 10:02:05;;;;;;;2.35;0.68;;;;;;;18.84;44.87;100652.31;5068134;28;20056;-63
2021/12/03 10:05:05;;;;;;;4.20;0.80;;;;;;;18.87;44.80;100651.19;5067922;28;20412;-63
2021/12/03 10:11:02;;;;;;;3.20;0.63;;;;;;;18.91;45.06;100649.91;5066433;28;20159;-63
2021/12/03 10:13:29;;;;;;;4.30;0.70;;;;;;;18.88;45.12;100631.59;5067309;28;20051;-63
2021/12/03 10:18:56;;;;;;;2.72;0.60;;;;;;;18.83;44.88;100632.03;5067045;28;20512;-63
2021/12/03 10:24:36;;;;;;;2.83;0.73;;;;;;;18.90;44.69;100624.31;5067508;28;20048;-64
2021/12/03 10:38:44;;;;;;;3.22;0.70;;;;;;;18.88;45.01;100599.69;5047613;28;20106;-64
2021/12/03 10:43:53;;;;;;;3.72;0.77;;;;;;;18.92;44.81;100606.38;5030071;28;20060;-62
2021/12/03 11:00:33;;;;;;;4.47;0.90;;;;;;;18.88;44.51;100546.53;5067609;28;20410;-62
2021/12/03 11:35:54;;;;;;;4.38;0.88;;;;;;;18.95;44.83;100483.81;5055344;28;20519;-63
2021/12/03 12:21:38;;;;;;;2.45;0.70;;;;;;;18.87;44.83;100393.38;5048049;28;20119;-63
2021/12/03 12:35:40;;;;;;;7.55;0.90;;;;;;;18.81;45.77;100383.34;5029192;28;20041;-63
2021/12/03 12:56:35;;;;;;;1.73;0.60;;;;;;;18.80;45.40;100352.44;5057787;28;20135;-63
2021/12/03 13:34:43;;;;;;;2.92;0.90;;;;;;;18.94;45.81;100315.53;5068209;28;20075;-63
2021/12/03 14:02:44;;;;;;;2.83;0.73;;;;;;;19.04;45.87;100315.44;5015067;28;20044;-63
2021/12/03 14:35:22;;;;;;;5.32;1.20;;;;;;;18.95;45.79;100314.53;5066948;28;20036;-63
2021/12/03 14:52:20;;;;;;;4.00;0.82;;;;;;;18.99;46.62;100283.19;5049230;28;20048;-63
2021/12/03 14:54:50;;;;;;;2.70;1.00;;;;;;;19.03;46.26;100284.53;5053489;28;20041;-63
2021/12/03 14:57:26;;;;;;;2.83;0.90;;;;;;;19.04;45.90;100282.69;5064254;28;20064;-63
2021/12/03 15:00:17;;;;;;;3.10;1.00;;;;;;;19.04;45.85;100280.88;5037140;28;20101;-63
2021/12/03 15:03:42;;;;;;;1.70;0.82;;;;;;;19.05;46.34;100279.88;5054779;28;20051;-63
2021/12/03 15:08:34;;;;;;;2.72;1.10;;;;;;;19.00;45.89;100268.88;5048733;28;20075;-63
2021/12/03 15:22:34;;;;;;;3.75;1.17;;;;;;;19.03;45.93;100275.72;5044036;28;20101;-63
2021/12/03 16:05:07;;;;;;;2.17;1.00;;;;;;;19.13;45.89;100241.88;5070451;28;20059;-63
2021/12/03 16:07:58;;;;;;;1.88;0.95;;;;;;;19.17;46.27;100245.88;5061432;28;20037;-63
2021/12/03 16:10:28;;;;;;;1.55;0.95;;;;;;;19.13;45.81;100242.72;5066951;28;20072;-63
2021/12/03 16:16:13;;;;;;;2.35;1.30;;;;;;;19.14;46.16;100243.53;5034828;28;20075;-63
2021/12/03 16:51:04;;;;;;;4.35;1.55;;;;;;;19.01;46.44;100246.63;5062775;28;20036;-63
2021/12/03 16:53:30;;;;;;;2.13;1.13;;;;;;;19.16;45.77;100239.72;5048440;28;20139;-64
2021/12/03 16:58:25;;;;;;;3.95;1.58;;;;;;;19.06;46.22;100230.22;5055794;28;20064;-63
2021/12/03 17:01:04;;;;;;;2.90;1.50;;;;;;;19.12;46.93;100224.28;5043673;28;20446;-63
2021/12/03 17:03:40;;;;;;;2.83;1.10;;;;;;;19.19;46.50;100231.44;5026440;28;20056;-63
2021/12/03 17:49:01;;;;;;;3.35;1.45;;;;;;;19.38;47.94;100194.97;5034963;28;20412;-64
2021/12/03 17:56:50;;;;;;;3.08;1.45;;;;;;;19.39;48.70;100205.44;5029288;28;20037;-64
2021/12/03 17:59:26;;;;;;;3.75;1.60;;;;;;;19.39;48.56;100202.78;5028240;28;20045;-64
2021/12/03 18:04:24;;;;;;;6.10;1.80;;;;;;;19.14;48.93;100191.19;5033267;28;20042;-62
2021/12/03 18:07:05;;;;;;;;;;;;;;;19.11;49.06;100191.50;5054653;28;20060;-62
2021/12/03 18:47:17;;;;;;;6.97;3.00;;;;;;;19.11;47.04;100182.69;5054097;28;20041;-64
2021/12/03 18:55:16;;;;;;;8.43;1.77;;;;;;;19.57;47.05;100200.03;5049436;28;20062;-63
2021/12/03 18:57:45;;;;;;;9.77;1.63;;;;;;;19.61;46.87;100198.69;5014219;28;20220;-64